sensor_id;sensor_type;location;lat;lon;timestamp;P1;durP1;ratioP1;P2;durP2;ratioP2
4634;SDS011;2330;48.158;11.816;2023-08-31T00:01:06;2.10;;;2.00;;
4634;SDS011;2330;48.158;11.816;2023-08-31T00:03:33;2.97;;;2.10;;
4634;SDS011;2330;48.158;11.816;2023-08-31T00:06:03;1.90;;;1.80;;
4634;SDS011;2330;48.158;11.816;2023-08-31T00:08:30;6.30;;;2.00;;
4634;SDS011;2330;48.158;11.816;2023-08-31T00:10:57;1.90;;;1.80;;
4634;SDS011;2330;48.158;11.816;2023-08-31T00:13:26;2.33;;;2.13;;
4634;SDS011;2330;48.158;11.816;2023-08-31T00:15:55;2.10;;;2.00;;
4634;SDS011;2330;48.158;11.816;2023-08-31T00:18:24;1.60;;;1.50;;
4634;SDS011;2330;48.158;11.816;2023-08-31T00:20:51;2.67;;;2.07;;
4634;SDS011;2330;48.158;11.816;2023-08-31T00:23:18;12.60;;;2.97;;
4634;SDS011;2330;48.158;11.816;2023-08-31T00:25:48;1.60;;;1.50;;
4634;SDS011;2330;48.158;11.816;2023-08-31T00:28:15;2.40;;;2.30;;
4634;SDS011;2330;48.158;11.816;2023-08-31T00:30:45;1.80;;;1.70;;
4634;SDS011;2330;48.158;11.816;2023-08-31T00:33:12;2.30;;;2.10;;
4634;SDS011;2330;48.158;11.816;2023-08-31T00:35:40;2.00;;;1.80;;
4634;SDS011;2330;48.158;11.816;2023-08-31T00:38:12;1.97;;;1.77;;
4634;SDS011;2330;48.158;11.816;2023-08-31T00:40:43;2.37;;;2.17;;
4634;SDS011;2330;48.158;11.816;2023-08-31T00:43:12;2.03;;;1.93;;
4634;SDS011;2330;48.158;11.816;2023-08-31T00:45:42;5.27;;;2.17;;
4634;SDS011;2330;48.158;11.816;2023-08-31T00:48:11;2.47;;;2.20;;
4634;SDS011;2330;48.158;11.816;2023-08-31T00:50:38;2.13;;;1.93;;
4634;SDS011;2330;48.158;11.816;2023-08-31T00:53:05;2.77;;;2.10;;
4634;SDS011;2330;48.158;11.816;2023-08-31T00:55:32;1.70;;;1.60;;
4634;SDS011;2330;48.158;11.816;2023-08-31T00:57:59;2.27;;;1.93;;
4634;SDS011;2330;48.158;11.816;2023-08-31T01:00:33;2.40;;;1.80;;
4634;SDS011;2330;48.158;11.816;2023-08-31T01:03:25;2.40;;;2.20;;
4634;SDS011;2330;48.158;11.816;2023-08-31T01:06:00;5.00;;;2.40;;
4634;SDS011;2330;48.158;11.816;2023-08-31T01:08:57;3.73;;;1.97;;
4634;SDS011;2330;48.158;11.816;2023-08-31T01:11:44;4.63;;;2.17;;
4634;SDS011;2330;48.158;11.816;2023-08-31T01:14:14;2.43;;;2.23;;
4634;SDS011;2330;48.158;11.816;2023-08-31T01:16:45;1.90;;;1.80;;
4634;SDS011;2330;48.158;11.816;2023-08-31T01:19:39;2.40;;;2.20;;
4634;SDS011;2330;48.158;11.816;2023-08-31T01:25:08;2.10;;;1.90;;
4634;SDS011;2330;48.158;11.816;2023-08-31T01:27:36;1.93;;;1.83;;
4634;SDS011;2330;48.158;11.816;2023-08-31T01:30:04;3.63;;;2.70;;
4634;SDS011;2330;48.158;11.816;2023-08-31T01:32:32;3.07;;;2.10;;
4634;SDS011;2330;48.158;11.816;2023-08-31T01:35:00;2.13;;;1.93;;
4634;SDS011;2330;48.158;11.816;2023-08-31T01:40:10;2.30;;;2.10;;
4634;SDS011;2330;48.158;11.816;2023-08-31T01:43:04;4.40;;;2.43;;
4634;SDS011;2330;48.158;11.816;2023-08-31T01:45:32;2.93;;;1.90;;
4634;SDS011;2330;48.158;11.816;2023-08-31T01:48:00;1.77;;;1.67;;
4634;SDS011;2330;48.158;11.816;2023-08-31T01:50:27;2.17;;;2.07;;
4634;SDS011;2330;48.158;11.816;2023-08-31T01:52:54;2.03;;;1.93;;
4634;SDS011;2330;48.158;11.816;2023-08-31T01:55:22;2.10;;;2.00;;
4634;SDS011;2330;48.158;11.816;2023-08-31T01:57:50;2.70;;;2.23;;
4634;SDS011;2330;48.158;11.816;2023-08-31T02:00:17;2.47;;;2.27;;
4634;SDS011;2330;48.158;11.816;2023-08-31T02:02:45;2.33;;;2.13;;
4634;SDS011;2330;48.158;11.816;2023-08-31T02:05:12;4.87;;;2.63;;
4634;SDS011;2330;48.158;11.816;2023-08-31T02:07:39;2.50;;;2.30;;
4634;SDS011;2330;48.158;11.816;2023-08-31T02:10:06;3.60;;;1.93;;
4634;SDS011;2330;48.158;11.816;2023-08-31T02:12:34;2.57;;;2.37;;
4634;SDS011;2330;48.158;11.816;2023-08-31T02:15:03;2.30;;;2.20;;
4634;SDS011;2330;48.158;11.816;2023-08-31T02:17:33;2.43;;;2.23;;
4634;SDS011;2330;48.158;11.816;2023-08-31T02:20:01;2.73;;;2.53;;
4634;SDS011;2330;48.158;11.816;2023-08-31T02:22:30;2.27;;;2.17;;
4634;SDS011;2330;48.158;11.816;2023-08-31T02:25:00;2.93;;;2.27;;
4634;SDS011;2330;48.158;11.816;2023-08-31T02:27:27;2.30;;;2.10;;
4634;SDS011;2330;48.158;11.816;2023-08-31T02:29:54;2.57;;;2.37;;
4634;SDS011;2330;48.158;11.816;2023-08-31T02:32:22;3.90;;;2.50;;
4634;SDS011;2330;48.158;11.816;2023-08-31T02:34:49;2.30;;;2.10;;
4634;SDS011;2330;48.158;11.816;2023-08-31T02:37:16;4.07;;;2.40;;
4634;SDS011;2330;48.158;11.816;2023-08-31T02:39:43;3.20;;;2.07;;
4634;SDS011;2330;48.158;11.816;2023-08-31T02:42:10;2.63;;;2.30;;
4634;SDS011;2330;48.158;11.816;2023-08-31T02:44:37;2.60;;;2.40;;
4634;SDS011;2330;48.158;11.816;2023-08-31T02:47:04;2.30;;;2.10;;
4634;SDS011;2330;48.158;11.816;2023-08-31T02:49:30;2.00;;;1.90;;
4634;SDS011;2330;48.158;11.816;2023-08-31T02:51:57;3.00;;;2.30;;
4634;SDS011;2330;48.158;11.816;2023-08-31T02:54:24;2.50;;;2.30;;
4634;SDS011;2330;48.158;11.816;2023-08-31T02:56:50;2.60;;;2.40;;
4634;SDS011;2330;48.158;11.816;2023-08-31T02:59:20;2.30;;;2.20;;
4634;SDS011;2330;48.158;11.816;2023-08-31T03:01:48;2.67;;;2.50;;
4634;SDS011;2330;48.158;11.816;2023-08-31T03:04:15;3.00;;;2.80;;
4634;SDS011;2330;48.158;11.816;2023-08-31T03:06:41;2.23;;;2.13;;
4634;SDS011;2330;48.158;11.816;2023-08-31T03:09:08;9.70;;;2.80;;
4634;SDS011;2330;48.158;11.816;2023-08-31T03:11:36;3.23;;;2.93;;
4634;SDS011;2330;48.158;11.816;2023-08-31T03:14:02;4.30;;;2.43;;
4634;SDS011;2330;48.158;11.816;2023-08-31T03:16:29;2.83;;;2.63;;
4634;SDS011;2330;48.158;11.816;2023-08-31T03:18:56;3.23;;;3.03;;
4634;SDS011;2330;48.158;11.816;2023-08-31T03:21:23;3.80;;;2.97;;
4634;SDS011;2330;48.158;11.816;2023-08-31T03:23:50;2.83;;;2.63;;
4634;SDS011;2330;48.158;11.816;2023-08-31T03:26:17;3.50;;;3.20;;
4634;SDS011;2330;48.158;11.816;2023-08-31T03:28:43;6.30;;;3.33;;
4634;SDS011;2330;48.158;11.816;2023-08-31T03:31:10;3.77;;;3.37;;
4634;SDS011;2330;48.158;11.816;2023-08-31T03:33:37;8.40;;;4.57;;
4634;SDS011;2330;48.158;11.816;2023-08-31T03:36:04;5.30;;;3.67;;
4634;SDS011;2330;48.158;11.816;2023-08-31T03:38:32;9.73;;;3.90;;
4634;SDS011;2330;48.158;11.816;2023-08-31T03:40:58;5.33;;;3.67;;
4634;SDS011;2330;48.158;11.816;2023-08-31T03:43:25;5.13;;;3.20;;
4634;SDS011;2330;48.158;11.816;2023-08-31T03:45:55;4.00;;;3.53;;
4634;SDS011;2330;48.158;11.816;2023-08-31T03:48:23;3.50;;;3.20;;
4634;SDS011;2330;48.158;11.816;2023-08-31T03:50:54;6.53;;;3.87;;
4634;SDS011;2330;48.158;11.816;2023-08-31T03:53:21;4.50;;;4.03;;
4634;SDS011;2330;48.158;11.816;2023-08-31T03:55:49;4.93;;;4.07;;
4634;SDS011;2330;48.158;11.816;2023-08-31T03:58:16;3.83;;;3.53;;
4634;SDS011;2330;48.158;11.816;2023-08-31T04:00:42;4.10;;;3.40;;
4634;SDS011;2330;48.158;11.816;2023-08-31T04:03:09;3.93;;;3.63;;
4634;SDS011;2330;48.158;11.816;2023-08-31T04:05:37;9.50;;;3.83;;
4634;SDS011;2330;48.158;11.816;2023-08-31T04:08:04;5.37;;;3.23;;
4634;SDS011;2330;48.158;11.816;2023-08-31T04:10:31;3.70;;;3.40;;
4634;SDS011;2330;48.158;11.816;2023-08-31T04:12:58;4.30;;;3.67;;
4634;SDS011;2330;48.158;11.816;2023-08-31T04:15:25;6.73;;;3.80;;
4634;SDS011;2330;48.158;11.816;2023-08-31T04:17:52;3.60;;;3.30;;
4634;SDS011;2330;48.158;11.816;2023-08-31T04:20:19;3.57;;;2.83;;
4634;SDS011;2330;48.158;11.816;2023-08-31T04:22:46;3.27;;;2.97;;
4634;SDS011;2330;48.158;11.816;2023-08-31T04:25:12;5.03;;;3.23;;
4634;SDS011;2330;48.158;11.816;2023-08-31T04:27:39;3.37;;;3.00;;
4634;SDS011;2330;48.158;11.816;2023-08-31T04:30:06;3.53;;;3.23;;
4634;SDS011;2330;48.158;11.816;2023-08-31T04:32:34;3.10;;;2.67;;
4634;SDS011;2330;48.158;11.816;2023-08-31T04:35:04;3.30;;;3.00;;
4634;SDS011;2330;48.158;11.816;2023-08-31T04:37:32;4.20;;;2.77;;
4634;SDS011;2330;48.158;11.816;2023-08-31T04:39:59;4.70;;;2.87;;
4634;SDS011;2330;48.158;11.816;2023-08-31T04:42:26;3.37;;;3.07;;
4634;SDS011;2330;48.158;11.816;2023-08-31T04:44:54;7.10;;;3.33;;
4634;SDS011;2330;48.158;11.816;2023-08-31T04:47:20;3.33;;;2.30;;
4634;SDS011;2330;48.158;11.816;2023-08-31T04:49:47;3.13;;;2.87;;
4634;SDS011;2330;48.158;11.816;2023-08-31T04:52:14;2.40;;;2.30;;
4634;SDS011;2330;48.158;11.816;2023-08-31T04:54:41;3.07;;;2.77;;
4634;SDS011;2330;48.158;11.816;2023-08-31T04:57:08;3.67;;;2.60;;
4634;SDS011;2330;48.158;11.816;2023-08-31T04:59:34;3.53;;;3.23;;
4634;SDS011;2330;48.158;11.816;2023-08-31T05:02:01;3.53;;;2.93;;
4634;SDS011;2330;48.158;11.816;2023-08-31T05:04:28;2.97;;;2.70;;
4634;SDS011;2330;48.158;11.816;2023-08-31T05:06:55;3.20;;;3.00;;
4634;SDS011;2330;48.158;11.816;2023-08-31T05:09:24;2.90;;;2.70;;
4634;SDS011;2330;48.158;11.816;2023-08-31T05:11:51;3.47;;;3.17;;
4634;SDS011;2330;48.158;11.816;2023-08-31T05:14:18;3.40;;;2.53;;
4634;SDS011;2330;48.158;11.816;2023-08-31T05:16:45;3.90;;;2.50;;
4634;SDS011;2330;48.158;11.816;2023-08-31T05:19:11;4.00;;;2.80;;
4634;SDS011;2330;48.158;11.816;2023-08-31T05:21:38;2.87;;;2.67;;
4634;SDS011;2330;48.158;11.816;2023-08-31T05:24:05;2.87;;;2.40;;
4634;SDS011;2330;48.158;11.816;2023-08-31T05:26:32;5.60;;;2.70;;
4634;SDS011;2330;48.158;11.816;2023-08-31T05:28:59;2.83;;;2.63;;
4634;SDS011;2330;48.158;11.816;2023-08-31T05:31:25;5.97;;;2.47;;
4634;SDS011;2330;48.158;11.816;2023-08-31T05:33:52;2.30;;;2.10;;
4634;SDS011;2330;48.158;11.816;2023-08-31T05:36:21;2.70;;;2.50;;
4634;SDS011;2330;48.158;11.816;2023-08-31T05:38:48;3.03;;;2.40;;
4634;SDS011;2330;48.158;11.816;2023-08-31T05:41:16;2.90;;;2.57;;
4634;SDS011;2330;48.158;11.816;2023-08-31T05:43:43;2.23;;;2.10;;
4634;SDS011;2330;48.158;11.816;2023-08-31T05:46:10;2.97;;;2.50;;
4634;SDS011;2330;48.158;11.816;2023-08-31T05:48:37;2.70;;;2.50;;
4634;SDS011;2330;48.158;11.816;2023-08-31T05:51:04;3.33;;;2.80;;
4634;SDS011;2330;48.158;11.816;2023-08-31T05:53:30;2.77;;;2.57;;
4634;SDS011;2330;48.158;11.816;2023-08-31T05:55:58;2.83;;;2.63;;
4634;SDS011;2330;48.158;11.816;2023-08-31T05:58:33;3.53;;;2.43;;
4634;SDS011;2330;48.158;11.816;2023-08-31T06:01:01;2.03;;;1.90;;
4634;SDS011;2330;48.158;11.816;2023-08-31T06:03:29;2.53;;;2.37;;
4634;SDS011;2330;48.158;11.816;2023-08-31T06:05:57;2.47;;;2.37;;
4634;SDS011;2330;48.158;11.816;2023-08-31T06:08:25;3.70;;;2.70;;
4634;SDS011;2330;48.158;11.816;2023-08-31T06:10:52;3.53;;;2.50;;
4634;SDS011;2330;48.158;11.816;2023-08-31T06:13:18;2.40;;;2.30;;
4634;SDS011;2330;48.158;11.816;2023-08-31T06:15:45;2.73;;;2.53;;
4634;SDS011;2330;48.158;11.816;2023-08-31T06:18:12;6.40;;;2.93;;
4634;SDS011;2330;48.158;11.816;2023-08-31T06:20:40;2.77;;;2.57;;
4634;SDS011;2330;48.158;11.816;2023-08-31T06:23:07;3.20;;;3.00;;
4634;SDS011;2330;48.158;11.816;2023-08-31T06:25:36;2.97;;;2.70;;
4634;SDS011;2330;48.158;11.816;2023-08-31T06:28:03;2.80;;;2.60;;
4634;SDS011;2330;48.158;11.816;2023-08-31T06:30:35;3.60;;;3.30;;
4634;SDS011;2330;48.158;11.816;2023-08-31T06:33:02;6.60;;;3.40;;
4634;SDS011;2330;48.158;11.816;2023-08-31T06:35:29;4.40;;;3.60;;
4634;SDS011;2330;48.158;11.816;2023-08-31T06:37:57;3.87;;;2.87;;
4634;SDS011;2330;48.158;11.816;2023-08-31T06:40:24;4.07;;;3.77;;
4634;SDS011;2330;48.158;11.816;2023-08-31T06:42:51;3.43;;;3.13;;
4634;SDS011;2330;48.158;11.816;2023-08-31T06:45:18;3.87;;;3.53;;
4634;SDS011;2330;48.158;11.816;2023-08-31T06:47:44;3.57;;;3.33;;
4634;SDS011;2330;48.158;11.816;2023-08-31T06:50:11;3.90;;;3.60;;
4634;SDS011;2330;48.158;11.816;2023-08-31T06:52:38;4.13;;;3.73;;
4634;SDS011;2330;48.158;11.816;2023-08-31T06:55:07;3.33;;;3.13;;
4634;SDS011;2330;48.158;11.816;2023-08-31T06:57:34;3.80;;;3.17;;
4634;SDS011;2330;48.158;11.816;2023-08-31T07:00:03;3.20;;;3.00;;
4634;SDS011;2330;48.158;11.816;2023-08-31T07:02:30;2.57;;;2.40;;
4634;SDS011;2330;48.158;11.816;2023-08-31T07:04:57;7.60;;;3.30;;
4634;SDS011;2330;48.158;11.816;2023-08-31T07:07:24;3.67;;;3.37;;
4634;SDS011;2330;48.158;11.816;2023-08-31T07:09:50;3.93;;;3.50;;
4634;SDS011;2330;48.158;11.816;2023-08-31T07:12:17;4.40;;;3.40;;
4634;SDS011;2330;48.158;11.816;2023-08-31T07:14:44;3.13;;;2.83;;
4634;SDS011;2330;48.158;11.816;2023-08-31T07:17:11;3.97;;;3.60;;
4634;SDS011;2330;48.158;11.816;2023-08-31T07:19:39;4.37;;;3.60;;
4634;SDS011;2330;48.158;11.816;2023-08-31T07:22:05;4.93;;;3.30;;
4634;SDS011;2330;48.158;11.816;2023-08-31T07:24:32;4.70;;;3.20;;
4634;SDS011;2330;48.158;11.816;2023-08-31T07:27:01;6.37;;;3.93;;
4634;SDS011;2330;48.158;11.816;2023-08-31T07:29:29;9.00;;;3.67;;
4634;SDS011;2330;48.158;11.816;2023-08-31T07:31:56;13.60;;;4.93;;
4634;SDS011;2330;48.158;11.816;2023-08-31T07:34:23;6.20;;;4.10;;
4634;SDS011;2330;48.158;11.816;2023-08-31T07:36:50;3.50;;;3.20;;
4634;SDS011;2330;48.158;11.816;2023-08-31T07:39:17;4.20;;;3.40;;
4634;SDS011;2330;48.158;11.816;2023-08-31T07:41:44;5.07;;;2.90;;
4634;SDS011;2330;48.158;11.816;2023-08-31T07:44:11;5.80;;;3.40;;
4634;SDS011;2330;48.158;11.816;2023-08-31T07:46:37;2.80;;;2.60;;
4634;SDS011;2330;48.158;11.816;2023-08-31T07:49:04;7.60;;;3.20;;
4634;SDS011;2330;48.158;11.816;2023-08-31T07:51:31;3.53;;;2.93;;
4634;SDS011;2330;48.158;11.816;2023-08-31T07:53:59;3.53;;;2.50;;
4634;SDS011;2330;48.158;11.816;2023-08-31T07:56:26;3.80;;;2.93;;
4634;SDS011;2330;48.158;11.816;2023-08-31T07:58:53;4.03;;;2.47;;
4634;SDS011;2330;48.158;11.816;2023-08-31T08:01:19;3.70;;;2.30;;
4634;SDS011;2330;48.158;11.816;2023-08-31T08:03:46;2.83;;;2.57;;
4634;SDS011;2330;48.158;11.816;2023-08-31T08:06:13;2.63;;;2.43;;
4634;SDS011;2330;48.158;11.816;2023-08-31T08:08:40;3.20;;;2.90;;
4634;SDS011;2330;48.158;11.816;2023-08-31T08:11:07;5.20;;;2.30;;
4634;SDS011;2330;48.158;11.816;2023-08-31T08:13:34;3.03;;;2.40;;
4634;SDS011;2330;48.158;11.816;2023-08-31T08:16:01;4.53;;;2.53;;
4634;SDS011;2330;48.158;11.816;2023-08-31T08:18:29;3.27;;;2.47;;
4634;SDS011;2330;48.158;11.816;2023-08-31T08:20:57;6.33;;;2.40;;
4634;SDS011;2330;48.158;11.816;2023-08-31T08:23:23;2.80;;;2.60;;
4634;SDS011;2330;48.158;11.816;2023-08-31T08:25:50;3.77;;;2.70;;
4634;SDS011;2330;48.158;11.816;2023-08-31T08:28:17;2.23;;;2.00;;
4634;SDS011;2330;48.158;11.816;2023-08-31T08:30:44;4.73;;;2.60;;
4634;SDS011;2330;48.158;11.816;2023-08-31T08:33:11;5.13;;;2.20;;
4634;SDS011;2330;48.158;11.816;2023-08-31T08:35:38;2.00;;;1.90;;
4634;SDS011;2330;48.158;11.816;2023-08-31T08:38:05;4.00;;;2.33;;
4634;SDS011;2330;48.158;11.816;2023-08-31T08:40:32;2.00;;;1.90;;
4634;SDS011;2330;48.158;11.816;2023-08-31T08:43:02;2.97;;;2.57;;
4634;SDS011;2330;48.158;11.816;2023-08-31T08:45:36;3.10;;;2.30;;
4634;SDS011;2330;48.158;11.816;2023-08-31T08:48:06;3.67;;;2.57;;
4634;SDS011;2330;48.158;11.816;2023-08-31T08:50:34;7.07;;;2.73;;
4634;SDS011;2330;48.158;11.816;2023-08-31T08:53:03;3.20;;;2.13;;
4634;SDS011;2330;48.158;11.816;2023-08-31T08:55:31;2.27;;;2.00;;
4634;SDS011;2330;48.158;11.816;2023-08-31T08:57:59;2.87;;;2.33;;
4634;SDS011;2330;48.158;11.816;2023-08-31T09:00:26;6.90;;;2.30;;
4634;SDS011;2330;48.158;11.816;2023-08-31T09:02:54;3.33;;;2.30;;
4634;SDS011;2330;48.158;11.816;2023-08-31T09:05:22;2.17;;;1.97;;
4634;SDS011;2330;48.158;11.816;2023-08-31T09:08:07;5.03;;;2.43;;
4634;SDS011;2330;48.158;11.816;2023-08-31T09:10:40;3.37;;;2.47;;
4634;SDS011;2330;48.158;11.816;2023-08-31T09:13:11;2.33;;;1.70;;
4634;SDS011;2330;48.158;11.816;2023-08-31T09:15:48;2.50;;;1.90;;
4634;SDS011;2330;48.158;11.816;2023-08-31T09:18:23;2.97;;;2.23;;
4634;SDS011;2330;48.158;11.816;2023-08-31T09:20:50;3.23;;;2.17;;
4634;SDS011;2330;48.158;11.816;2023-08-31T09:23:17;5.93;;;2.30;;
4634;SDS011;2330;48.158;11.816;2023-08-31T09:25:48;2.47;;;2.20;;
4634;SDS011;2330;48.158;11.816;2023-08-31T09:28:18;6.40;;;2.37;;
4634;SDS011;2330;48.158;11.816;2023-08-31T09:30:46;7.33;;;2.47;;
4634;SDS011;2330;48.158;11.816;2023-08-31T09:33:15;5.30;;;2.27;;
4634;SDS011;2330;48.158;11.816;2023-08-31T09:35:50;7.03;;;2.90;;
4634;SDS011;2330;48.158;11.816;2023-08-31T09:38:18;6.10;;;1.87;;
4634;SDS011;2330;48.158;11.816;2023-08-31T09:40:45;2.90;;;1.93;;
4634;SDS011;2330;48.158;11.816;2023-08-31T09:43:12;2.93;;;1.97;;
4634;SDS011;2330;48.158;11.816;2023-08-31T09:45:46;1.80;;;1.70;;
4634;SDS011;2330;48.158;11.816;2023-08-31T09:48:14;3.80;;;2.10;;
4634;SDS011;2330;48.158;11.816;2023-08-31T09:50:43;5.00;;;2.23;;
4634;SDS011;2330;48.158;11.816;2023-08-31T09:53:11;1.97;;;1.87;;
4634;SDS011;2330;48.158;11.816;2023-08-31T09:55:39;2.90;;;1.97;;
4634;SDS011;2330;48.158;11.816;2023-08-31T09:58:07;3.80;;;1.83;;
4634;SDS011;2330;48.158;11.816;2023-08-31T10:00:42;3.00;;;2.20;;
4634;SDS011;2330;48.158;11.816;2023-08-31T10:03:09;5.13;;;2.07;;
4634;SDS011;2330;48.158;11.816;2023-08-31T10:05:43;2.93;;;2.23;;
4634;SDS011;2330;48.158;11.816;2023-08-31T10:08:11;4.13;;;2.60;;
4634;SDS011;2330;48.158;11.816;2023-08-31T10:10:39;4.30;;;2.37;;
4634;SDS011;2330;48.158;11.816;2023-08-31T10:13:07;4.90;;;2.50;;
4634;SDS011;2330;48.158;11.816;2023-08-31T10:15:35;3.27;;;1.87;;
4634;SDS011;2330;48.158;11.816;2023-08-31T10:18:03;2.70;;;1.80;;
4634;SDS011;2330;48.158;11.816;2023-08-31T10:20:31;8.50;;;2.43;;
4634;SDS011;2330;48.158;11.816;2023-08-31T10:23:03;2.40;;;1.83;;
4634;SDS011;2330;48.158;11.816;2023-08-31T10:25:59;2.20;;;2.00;;
4634;SDS011;2330;48.158;11.816;2023-08-31T10:28:21;2.40;;;2.10;;
4634;SDS011;2330;48.158;11.816;2023-08-31T10:31:05;3.10;;;1.80;;
4634;SDS011;2330;48.158;11.816;2023-08-31T10:33:35;4.50;;;1.83;;
4634;SDS011;2330;48.158;11.816;2023-08-31T10:36:18;4.13;;;1.90;;
4634;SDS011;2330;48.158;11.816;2023-08-31T10:38:46;3.37;;;1.63;;
4634;SDS011;2330;48.158;11.816;2023-08-31T10:41:32;6.53;;;1.87;;
4634;SDS011;2330;48.158;11.816;2023-08-31T10:44:26;4.93;;;2.20;;
4634;SDS011;2330;48.158;11.816;2023-08-31T10:46:53;3.10;;;1.80;;
4634;SDS011;2330;48.158;11.816;2023-08-31T10:49:21;1.73;;;1.50;;
4634;SDS011;2330;48.158;11.816;2023-08-31T10:51:50;5.10;;;2.07;;
4634;SDS011;2330;48.158;11.816;2023-08-31T10:59:23;3.47;;;1.70;;
4634;SDS011;2330;48.158;11.816;2023-08-31T11:04:19;3.77;;;2.10;;
4634;SDS011;2330;48.158;11.816;2023-08-31T11:06:46;1.90;;;1.60;;
4634;SDS011;2330;48.158;11.816;2023-08-31T11:09:20;9.83;;;2.23;;
4634;SDS011;2330;48.158;11.816;2023-08-31T11:11:47;2.57;;;1.90;;
4634;SDS011;2330;48.158;11.816;2023-08-31T11:14:17;3.07;;;1.73;;
4634;SDS011;2330;48.158;11.816;2023-08-31T11:16:44;1.83;;;1.70;;
4634;SDS011;2330;48.158;11.816;2023-08-31T11:19:11;1.40;;;1.30;;
4634;SDS011;2330;48.158;11.816;2023-08-31T11:21:37;5.00;;;1.60;;
4634;SDS011;2330;48.158;11.816;2023-08-31T11:24:05;5.27;;;2.73;;
4634;SDS011;2330;48.158;11.816;2023-08-31T11:26:34;4.40;;;2.63;;
4634;SDS011;2330;48.158;11.816;2023-08-31T11:29:00;7.67;;;2.67;;
4634;SDS011;2330;48.158;11.816;2023-08-31T11:31:27;4.73;;;2.63;;
4634;SDS011;2330;48.158;11.816;2023-08-31T11:33:54;4.80;;;2.87;;
4634;SDS011;2330;48.158;11.816;2023-08-31T11:36:22;4.00;;;2.80;;
4634;SDS011;2330;48.158;11.816;2023-08-31T11:38:49;4.53;;;2.40;;
4634;SDS011;2330;48.158;11.816;2023-08-31T11:41:17;5.13;;;2.73;;
4634;SDS011;2330;48.158;11.816;2023-08-31T11:43:43;5.50;;;3.17;;
4634;SDS011;2330;48.158;11.816;2023-08-31T11:46:11;3.23;;;2.40;;
4634;SDS011;2330;48.158;11.816;2023-08-31T11:48:39;4.33;;;2.87;;
4634;SDS011;2330;48.158;11.816;2023-08-31T11:51:06;3.70;;;2.13;;
4634;SDS011;2330;48.158;11.816;2023-08-31T11:53:33;2.53;;;2.33;;
4634;SDS011;2330;48.158;11.816;2023-08-31T11:56:03;4.40;;;2.63;;
4634;SDS011;2330;48.158;11.816;2023-08-31T11:58:31;5.20;;;3.00;;
4634;SDS011;2330;48.158;11.816;2023-08-31T12:00:58;6.53;;;2.80;;
4634;SDS011;2330;48.158;11.816;2023-08-31T12:03:26;3.77;;;2.70;;
4634;SDS011;2330;48.158;11.816;2023-08-31T12:06:17;5.00;;;3.00;;
4634;SDS011;2330;48.158;11.816;2023-08-31T12:08:46;4.70;;;2.80;;
4634;SDS011;2330;48.158;11.816;2023-08-31T12:11:14;3.03;;;2.23;;
4634;SDS011;2330;48.158;11.816;2023-08-31T12:13:41;7.27;;;2.80;;
4634;SDS011;2330;48.158;11.816;2023-08-31T12:16:11;4.70;;;3.13;;
4634;SDS011;2330;48.158;11.816;2023-08-31T12:18:38;3.10;;;2.20;;
4634;SDS011;2330;48.158;11.816;2023-08-31T12:21:05;5.83;;;3.13;;
4634;SDS011;2330;48.158;11.816;2023-08-31T12:23:32;6.40;;;2.70;;
4634;SDS011;2330;48.158;11.816;2023-08-31T12:26:00;4.30;;;3.20;;
4634;SDS011;2330;48.158;11.816;2023-08-31T12:28:28;4.37;;;2.47;;
4634;SDS011;2330;48.158;11.816;2023-08-31T12:30:55;4.60;;;2.73;;
4634;SDS011;2330;48.158;11.816;2023-08-31T12:33:23;5.00;;;2.77;;
4634;SDS011;2330;48.158;11.816;2023-08-31T12:35:51;4.03;;;2.83;;
4634;SDS011;2330;48.158;11.816;2023-08-31T12:38:17;4.10;;;2.30;;
4634;SDS011;2330;48.158;11.816;2023-08-31T12:40:46;3.00;;;2.20;;
4634;SDS011;2330;48.158;11.816;2023-08-31T12:43:13;4.90;;;2.13;;
4634;SDS011;2330;48.158;11.816;2023-08-31T12:45:39;4.30;;;2.70;;
4634;SDS011;2330;48.158;11.816;2023-08-31T12:48:06;6.67;;;2.70;;
4634;SDS011;2330;48.158;11.816;2023-08-31T12:50:33;4.00;;;2.10;;
4634;SDS011;2330;48.158;11.816;2023-08-31T12:53:00;3.47;;;2.53;;
4634;SDS011;2330;48.158;11.816;2023-08-31T12:55:27;3.53;;;2.47;;
4634;SDS011;2330;48.158;11.816;2023-08-31T12:57:54;4.23;;;2.20;;
4634;SDS011;2330;48.158;11.816;2023-08-31T13:00:20;2.43;;;2.23;;
4634;SDS011;2330;48.158;11.816;2023-08-31T13:02:47;4.50;;;2.30;;
4634;SDS011;2330;48.158;11.816;2023-08-31T13:05:16;4.90;;;2.23;;
4634;SDS011;2330;48.158;11.816;2023-08-31T13:07:43;8.70;;;2.63;;
4634;SDS011;2330;48.158;11.816;2023-08-31T13:10:10;3.37;;;2.23;;
4634;SDS011;2330;48.158;11.816;2023-08-31T13:12:37;5.33;;;2.50;;
4634;SDS011;2330;48.158;11.816;2023-08-31T13:15:04;4.47;;;2.40;;
4634;SDS011;2330;48.158;11.816;2023-08-31T13:17:31;4.93;;;2.10;;
4634;SDS011;2330;48.158;11.816;2023-08-31T13:19:58;7.10;;;2.10;;
4634;SDS011;2330;48.158;11.816;2023-08-31T13:22:25;3.40;;;1.70;;
4634;SDS011;2330;48.158;11.816;2023-08-31T13:24:52;6.93;;;2.23;;
4634;SDS011;2330;48.158;11.816;2023-08-31T13:27:19;4.90;;;2.00;;
4634;SDS011;2330;48.158;11.816;2023-08-31T13:29:46;4.03;;;1.93;;
4634;SDS011;2330;48.158;11.816;2023-08-31T13:32:12;5.60;;;2.23;;
4634;SDS011;2330;48.158;11.816;2023-08-31T13:34:39;4.80;;;2.20;;
4634;SDS011;2330;48.158;11.816;2023-08-31T13:37:06;9.73;;;2.90;;
4634;SDS011;2330;48.158;11.816;2023-08-31T13:39:34;5.00;;;2.03;;
4634;SDS011;2330;48.158;11.816;2023-08-31T13:42:06;5.43;;;2.23;;
4634;SDS011;2330;48.158;11.816;2023-08-31T13:44:33;2.60;;;2.00;;
4634;SDS011;2330;48.158;11.816;2023-08-31T13:47:00;3.57;;;2.63;;
4634;SDS011;2330;48.158;11.816;2023-08-31T13:49:29;3.97;;;2.40;;
4634;SDS011;2330;48.158;11.816;2023-08-31T13:51:56;7.00;;;2.60;;
4634;SDS011;2330;48.158;11.816;2023-08-31T13:54:23;3.90;;;1.83;;
4634;SDS011;2330;48.158;11.816;2023-08-31T13:56:50;2.70;;;1.83;;
4634;SDS011;2330;48.158;11.816;2023-08-31T13:59:17;3.40;;;2.17;;
4634;SDS011;2330;48.158;11.816;2023-08-31T14:01:44;5.53;;;2.30;;
4634;SDS011;2330;48.158;11.816;2023-08-31T14:04:11;3.63;;;2.07;;
4634;SDS011;2330;48.158;11.816;2023-08-31T14:06:38;8.17;;;2.50;;
4634;SDS011;2330;48.158;11.816;2023-08-31T14:09:05;3.73;;;2.23;;
4634;SDS011;2330;48.158;11.816;2023-08-31T14:11:31;4.43;;;2.20;;
4634;SDS011;2330;48.158;11.816;2023-08-31T14:14:03;3.87;;;2.20;;
4634;SDS011;2330;48.158;11.816;2023-08-31T14:16:32;3.50;;;1.87;;
4634;SDS011;2330;48.158;11.816;2023-08-31T14:19:00;4.20;;;2.33;;
4634;SDS011;2330;48.158;11.816;2023-08-31T14:21:26;2.30;;;2.10;;
4634;SDS011;2330;48.158;11.816;2023-08-31T14:23:53;4.93;;;2.60;;
4634;SDS011;2330;48.158;11.816;2023-08-31T14:26:24;3.73;;;2.10;;
4634;SDS011;2330;48.158;11.816;2023-08-31T14:28:51;4.07;;;2.03;;
4634;SDS011;2330;48.158;11.816;2023-08-31T14:31:18;2.73;;;1.87;;
4634;SDS011;2330;48.158;11.816;2023-08-31T14:33:45;3.70;;;2.60;;
4634;SDS011;2330;48.158;11.816;2023-08-31T14:36:13;8.73;;;2.40;;
4634;SDS011;2330;48.158;11.816;2023-08-31T14:38:41;2.03;;;1.80;;
4634;SDS011;2330;48.158;11.816;2023-08-31T14:41:08;6.00;;;2.07;;
4634;SDS011;2330;48.158;11.816;2023-08-31T14:43:35;3.97;;;2.00;;
4634;SDS011;2330;48.158;11.816;2023-08-31T14:46:02;3.00;;;1.93;;
4634;SDS011;2330;48.158;11.816;2023-08-31T14:48:30;4.13;;;2.03;;
4634;SDS011;2330;48.158;11.816;2023-08-31T14:50:58;10.20;;;2.60;;
4634;SDS011;2330;48.158;11.816;2023-08-31T14:53:26;4.30;;;2.40;;
4634;SDS011;2330;48.158;11.816;2023-08-31T14:55:53;6.40;;;2.00;;
4634;SDS011;2330;48.158;11.816;2023-08-31T14:58:20;2.33;;;1.80;;
4634;SDS011;2330;48.158;11.816;2023-08-31T15:00:47;2.23;;;1.87;;
4634;SDS011;2330;48.158;11.816;2023-08-31T15:03:14;3.43;;;1.93;;
4634;SDS011;2330;48.158;11.816;2023-08-31T15:05:42;5.57;;;2.27;;
4634;SDS011;2330;48.158;11.816;2023-08-31T15:08:09;3.63;;;1.70;;
4634;SDS011;2330;48.158;11.816;2023-08-31T15:10:38;4.33;;;1.97;;
4634;SDS011;2330;48.158;11.816;2023-08-31T15:13:06;12.70;;;2.13;;
4634;SDS011;2330;48.158;11.816;2023-08-31T15:15:32;3.20;;;2.40;;
4634;SDS011;2330;48.158;11.816;2023-08-31T15:18:00;3.70;;;2.20;;
4634;SDS011;2330;48.158;11.816;2023-08-31T15:20:27;5.03;;;1.90;;